sensor_id;sensor_type;location;lat;lon;timestamp;pressure;altitude;pressure_sealevel;temperature;humidity
69926;BME280;57217;47.286;8.530;2022-08-01T00:22:22;95535.16;;;20.34;58.91
69926;BME280;57217;47.286;8.530;2022-08-01T00:52:24;95537.00;;;19.97;60.21
69926;BME280;57217;47.286;8.530;2022-08-01T01:22:42;95545.81;;;19.98;62.53
69926;BME280;57217;47.286;8.530;2022-08-01T01:52:49;95540.06;;;19.87;66.04
69926;BME280;57217;47.286;8.530;2022-08-01T02:22:53;95536.81;;;19.61;66.30
69926;BME280;57217;47.286;8.530;2022-08-01T02:53:00;95557.03;;;19.53;67.70
69926;BME280;57217;47.286;8.530;2022-08-01T03:23:07;95545.03;;;19.45;67.01
69926;BME280;57217;47.286;8.530;2022-08-01T03:53:11;95552.50;;;19.06;67.14
69926;BME280;57217;47.286;8.530;2022-08-01T04:23:16;95548.44;;;19.01;66.54
69926;BME280;57217;47.286;8.530;2022-08-01T04:53:20;95574.47;;;19.35;67.98
69926;BME280;57217;47.286;8.530;2022-08-01T05:23:23;95579.13;;;20.19;66.22
69926;BME280;57217;47.286;8.530;2022-08-01T05:53:26;95584.50;;;21.78;62.50
69926;BME280;57217;47.286;8.530;2022-08-01T06:23:28;95601.19;;;22.42;60.49
69926;BME280;57217;47.286;8.530;2022-08-01T06:53:31;95595.22;;;24.31;56.22
69926;BME280;57217;47.286;8.530;2022-08-01T07:23:33;95585.13;;;25.74;50.95
69926;BME280;57217;47.286;8.530;2022-08-01T07:53:36;95567.22;;;26.93;46.83
69926;BME280;57217;47.286;8.530;2022-08-01T08:23:38;95551.16;;;27.83;45.05
69926;BME280;57217;47.286;8.530;2022-08-01T08:54:03;95534.72;;;28.72;40.83
69926;BME280;57217;47.286;8.530;2022-08-01T09:24:15;95543.50;;;29.53;37.95
69926;BME280;57217;47.286;8.530;2022-08-01T09:54:28;95524.28;;;30.79;36.99
69926;BME280;57217;47.286;8.530;2022-08-01T10:24:35;95498.69;;;31.00;35.16
69926;BME280;57217;47.286;8.530;2022-08-01T10:54:39;95472.72;;;32.09;34.20
69926;BME280;57217;47.286;8.530;2022-08-01T11:25:00;95461.38;;;32.31;27.95
69926;BME280;57217;47.286;8.530;2022-08-01T11:55:08;95439.69;;;33.28;29.09
69926;BME280;57217;47.286;8.530;2022-08-01T12:25:12;95413.72;;;34.48;24.23
69926;BME280;57217;47.286;8.530;2022-08-01T12:55:17;95406.00;;;34.10;24.65
69926;BME280;57217;47.286;8.530;2022-08-01T13:25:20;95384.88;;;33.90;22.12
69926;BME280;57217;47.286;8.530;2022-08-01T13:55:23;95391.41;;;34.15;18.63
69926;BME280;57217;47.286;8.530;2022-08-01T14:25:25;95358.59;;;43.02;11.76
69926;BME280;57217;47.286;8.530;2022-08-01T14:55:27;95349.22;;;45.31;8.63
69926;BME280;57217;47.286;8.530;2022-08-01T15:25:30;95345.44;;;41.70;14.17
69926;BME280;57217;47.286;8.530;2022-08-01T15:55:34;95354.38;;;34.37;22.06
69926;BME280;57217;47.286;8.530;2022-08-01T16:25:37;95366.50;;;33.56;25.02
69926;BME280;57217;47.286;8.530;2022-08-01T16:55:39;95351.31;;;33.06;28.55
69926;BME280;57217;47.286;8.530;2022-08-01T17:25:42;95362.38;;;29.05;35.23
69926;BME280;57217;47.286;8.530;2022-08-01T17:55:45;95366.44;;;27.83;35.05
69926;BME280;57217;47.286;8.530;2022-08-01T18:25:47;95392.03;;;26.53;36.16
69926;BME280;57217;47.286;8.530;2022-08-01T18:55:49;95434.91;;;26.01;34.70
69926;BME280;57217;47.286;8.530;2022-08-01T19:25:54;95470.41;;;23.18;54.15
69926;BME280;57217;47.286;8.530;2022-08-01T19:55:58;95504.97;;;22.19;51.57
69926;BME280;57217;47.286;8.530;2022-08-01T20:26:01;95558.13;;;22.66;49.10
69926;BME280;57217;47.286;8.530;2022-08-01T20:56:06;95595.28;;;22.62;54.63
69926;BME280;57217;47.286;8.530;2022-08-01T21:26:08;95598.16;;;22.49;59.18
69926;BME280;57217;47.286;8.530;2022-08-01T21:56:20;95634.00;;;21.62;71.14
69926;BME280;57217;47.286;8.530;2022-08-01T22:26:31;95659.34;;;20.48;76.09
69926;BME280;57217;47.286;8.530;2022-08-01T22:56:36;95651.94;;;19.77;73.11
69926;BME280;57217;47.286;8.530;2022-08-01T23:26:41;95673.72;;;19.57;76.62
69926;BME280;57217;47.286;8.530;2022-08-01T23:56:45;95676.84;;;19.43;74.52
